Time;durP1;ratioP1;P1;durP2;ratioP2;P2;SDS_P1;SDS_P2;PMS_P1;PMS_P2;Temp;Humidity;BMP_temperature;BMP_pressure;BME280_temperature;BME280_humidity;BME280_pressure;Samples;Min_cycle;Max_cycle;Signal;HPM_P1;HPM_P2
2022/05/08 00:01:09;;;;;;;15.35;3.67;;;;;;;;;;5076150;28;20118;-84
2022/05/08 00:03:35;;;;;;;15.70;3.50;;;;;;;;;;5079477;28;20037;-84
2022/05/08 00:06:07;;;;;;;14.93;3.35;;;;;;;;;;5078995;28;20388;-84
2022/05/08 00:08:33;;;;;;;13.95;3.20;;;;;;;;;;5078288;28;20041;-84
2022/05/08 00:10:59;;;;;;;21.73;4.22;;;;;;;;;;5080292;28;20086;-84
2022/05/08 00:13:25;;;;;;;12.82;3.20;;;;;;;;;;5060915;28;20056;-84
2022/05/08 00:15:51;;;;;;;17.50;3.80;;;;;;;;;;5059950;28;20040;-84
2022/05/08 00:18:17;;;;;;;18.98;3.88;;;;;;;;;;5060517;28;20048;-84
2022/05/08 00:20:43;;;;;;;19.50;4.07;;;;;;;;;;5070244;28;20724;-84
2022/05/08 00:23:09;;;;;;;21.30;4.38;;;;;;;;;;5078411;28;20051;-85
2022/05/08 00:25:35;;;;;;;12.20;3.50;;;;;;;;;;5062239;28;20328;-84
2022/05/08 00:28:01;;;;;;;18.88;3.40;;;;;;;;;;5080947;28;20037;-84
2022/05/08 00:30:27;;;;;;;17.45;3.85;;;;;;;;;;5086794;28;20067;-84
2022/05/08 00:32:54;;;;;;;12.48;3.40;;;;;;;;;;5060711;28;20044;-84
2022/05/08 00:35:20;;;;;;;14.75;4.18;;;;;;;;;;5073994;28;20563;-85
2022/05/08 00:37:46;;;;;;;15.55;3.88;;;;;;;;;;5077273;28;20449;-85
2022/05/08 00:40:12;;;;;;;21.63;3.75;;;;;;;;;;5063277;28;20040;-84
2022/05/08 00:42:38;;;;;;;15.00;3.55;;;;;;;;;;5083836;28;20059;-84
2022/05/08 00:45:05;;;;;;;20.60;3.78;;;;;;;;;;5067863;28;20526;-84
2022/05/08 00:47:31;;;;;;;17.88;3.90;;;;;;;;;;5057676;28;20053;-84
2022/05/08 00:49:57;;;;;;;12.63;3.35;;;;;;;;;;5077637;28;20086;-84
2022/05/08 00:52:23;;;;;;;19.08;3.80;;;;;;;;;;5072615;28;20460;-84
2022/05/08 00:54:49;;;;;;;16.70;3.83;;;;;;;;;;5079644;28;20036;-84
2022/05/08 00:57:15;;;;;;;16.48;3.63;;;;;;;;;;5076154;28;20056;-84
2022/05/08 00:59:42;;;;;;;15.23;3.35;;;;;;;;;;5084739;28;20040;-84
2022/05/08 01:02:08;;;;;;;23.17;4.00;;;;;;;;;;5077311;28;20043;-84
2022/05/08 01:04:34;;;;;;;18.30;3.95;;;;;;;;;;5063178;28;20532;-84
2022/05/08 01:07:00;;;;;;;11.82;3.42;;;;;;;;;;5055933;28;20044;-85
2022/05/08 01:09:26;;;;;;;17.98;4.13;;;;;;;;;;5070002;28;20123;-85
2022/05/08 01:11:52;;;;;;;17.38;3.88;;;;;;;;;;5078714;28;20044;-85
2022/05/08 01:14:18;;;;;;;14.98;3.85;;;;;;;;;;5071753;28;20040;-85
2022/05/08 01:16:44;;;;;;;20.08;4.03;;;;;;;;;;5079245;28;20040;-84
2022/05/08 01:19:11;;;;;;;20.85;4.10;;;;;;;;;;5059821;28;20610;-85
2022/05/08 01:21:43;;;;;;;20.30;4.55;;;;;;;;;;5065414;28;20495;-85
2022/05/08 01:24:10;;;;;;;11.38;3.33;;;;;;;;;;5071360;28;20062;-86
2022/05/08 01:26:37;;;;;;;22.60;4.30;;;;;;;;;;5077739;28;20047;-85
2022/05/08 01:29:03;;;;;;;17.67;4.10;;;;;;;;;;5076953;28;20515;-85
2022/05/08 01:31:31;;;;;;;16.42;4.03;;;;;;;;;;5058232;28;20049;-86
2022/05/08 01:33:57;;;;;;;13.05;3.67;;;;;;;;;;5059577;28;20087;-86
2022/05/08 01:36:23;;;;;;;15.80;4.15;;;;;;;;;;5067545;28;20441;-86
2022/05/08 01:38:50;;;;;;;19.35;3.70;;;;;;;;;;5074867;28;20048;-86
2022/05/08 01:41:16;;;;;;;15.52;4.00;;;;;;;;;;5043097;28;20484;-86
2022/05/08 01:43:42;;;;;;;17.02;3.80;;;;;;;;;;5078260;28;20443;-85
2022/05/08 01:46:09;;;;;;;18.00;3.53;;;;;;;;;;5072872;28;20182;-85
2022/05/08 01:48:36;;;;;;;17.52;3.97;;;;;;;;;;5063634;28;20033;-85
2022/05/08 01:51:03;;;;;;;15.95;4.55;;;;;;;;;;5068507;28;20046;-86
2022/05/08 01:53:33;;;;;;;21.88;5.07;;;;;;;;;;5082455;28;20048;-86
2022/05/08 01:56:00;;;;;;;13.90;3.83;;;;;;;;;;5074437;28;20097;-86
2022/05/08 01:58:27;;;;;;;14.52;3.53;;;;;;;;;;5073338;28;20182;-86
2022/05/08 02:00:54;;;;;;;14.05;3.47;;;;;;;;;;5079047;28;20055;-86
2022/05/08 02:03:20;;;;;;;16.33;4.10;;;;;;;;;;5066031;28;20077;-86
2022/05/08 02:05:46;;;;;;;12.45;3.13;;;;;;;;;;5071493;28;20036;-86
2022/05/08 02:08:13;;;;;;;14.88;3.63;;;;;;;;;;5058822;28;20580;-86
2022/05/08 02:10:39;;;;;;;14.35;4.28;;;;;;;;;;5084657;28;20127;-86
2022/05/08 02:13:07;;;;;;;18.38;4.47;;;;;;;;;;5079054;28;20475;-86
2022/05/08 02:15:33;;;;;;;19.58;4.28;;;;;;;;;;5077681;28;20079;-86
2022/05/08 02:18:01;;;;;;;14.18;4.00;;;;;;;;;;5072197;28;20040;-86
2022/05/08 02:20:27;;;;;;;15.35;4.07;;;;;;;;;;5082778;28;20094;-86
2022/05/08 02:22:54;;;;;;;16.83;4.85;;;;;;;;;;5079998;28;20040;-86
2022/05/08 02:25:20;;;;;;;17.63;4.50;;;;;;;;;;5080514;28;20036;-87
2022/05/08 02:27:49;;;;;;;20.90;4.28;;;;;;;;;;5063350;28;20063;-87
2022/05/08 02:30:17;;;;;;;18.65;4.43;;;;;;;;;;5068381;28;20093;-86
2022/05/08 02:32:43;;;;;;;11.05;3.70;;;;;;;;;;5056694;28;20113;-87
2022/05/08 02:35:10;;;;;;;6.03;2.28;;;;;;;;;;5054998;28;20318;-87
2022/05/08 02:37:37;;;;;;;41.72;2.40;;;;;;;;;;5077284;28;20487;-86
2022/05/08 02:40:06;;;;;;;8.07;2.40;;;;;;;;;;5062964;28;20120;-86
2022/05/08 02:42:32;;;;;;;7.97;3.00;;;;;;;;;;5076258;28;20048;-86
2022/05/08 02:44:58;;;;;;;11.23;3.78;;;;;;;;;;5079407;28;20586;-85
2022/05/08 02:47:24;;;;;;;21.17;4.20;;;;;;;;;;5085257;28;20098;-85
2022/05/08 02:49:50;;;;;;;15.57;4.28;;;;;;;;;;5066668;28;20445;-85
2022/05/08 02:52:16;;;;;;;17.55;5.40;;;;;;;;;;5077079;28;20067;-85
2022/05/08 02:54:43;;;;;;;15.32;4.22;;;;;;;;;;5075986;28;20093;-85
2022/05/08 02:59:53;;;;;;;8.15;3.50;;;;;;;;;;5082507;28;20044;-85
2022/05/08 03:02:19;;;;;;;11.27;3.33;;;;;;;;;;5067916;28;20128;-85
2022/05/08 03:04:45;;;;;;;10.57;3.28;;;;;;;;;;5082437;28;20032;-85
2022/05/08 03:07:12;;;;;;;20.85;4.70;;;;;;;;;;5063251;28;20062;-86
2022/05/08 03:09:38;;;;;;;16.95;4.53;;;;;;;;;;5073489;28;20068;-85
2022/05/08 03:12:04;;;;;;;20.30;4.60;;;;;;;;;;5080143;28;20140;-85
2022/05/08 03:14:31;;;;;;;16.60;4.40;;;;;;;;;;5043043;28;20368;-85
2022/05/08 03:16:57;;;;;;;23.52;4.82;;;;;;;;;;5070271;28;20557;-85
2022/05/08 03:19:25;;;;;;;21.60;5.30;;;;;;;;;;5052215;28;20089;-84
2022/05/08 03:21:51;;;;;;;18.95;4.88;;;;;;;;;;5069089;28;20036;-84
2022/05/08 03:24:18;;;;;;;14.95;4.00;;;;;;;;;;5070938;28;20041;-84
2022/05/08 03:26:44;;;;;;;17.08;4.32;;;;;;;;;;5062412;28;20065;-84
2022/05/08 03:29:10;;;;;;;20.77;4.97;;;;;;;;;;5065701;28;20517;-84
2022/05/08 03:31:37;;;;;;;19.90;4.93;;;;;;;;;;5080746;28;20039;-84
2022/05/08 03:34:03;;;;;;;24.60;5.40;;;;;;;;;;5067382;28;20044;-84
2022/05/08 03:36:29;;;;;;;14.73;4.63;;;;;;;;;;5053238;28;20054;-84
2022/05/08 03:38:56;;;;;;;16.77;4.30;;;;;;;;;;5071195;28;20044;-84
2022/05/08 03:41:22;;;;;;;17.83;4.63;;;;;;;;;;5085539;28;20051;-84
2022/05/08 03:43:48;;;;;;;18.30;4.50;;;;;;;;;;5080039;28;20072;-84
2022/05/08 03:46:15;;;;;;;12.15;4.00;;;;;;;;;;5071156;28;20540;-84
2022/05/08 03:48:42;;;;;;;15.55;4.70;;;;;;;;;;5078550;28;20039;-84
2022/05/08 03:51:08;;;;;;;16.00;4.75;;;;;;;;;;5053977;28;20093;-84
2022/05/08 03:53:34;;;;;;;17.35;4.22;;;;;;;;;;5074767;28;20036;-84
2022/05/08 03:56:01;;;;;;;13.70;4.35;;;;;;;;;;5079670;28;20488;-84
2022/05/08 03:58:27;;;;;;;23.05;4.60;;;;;;;;;;5073872;28;20355;-85
2022/05/08 04:00:53;;;;;;;14.98;4.07;;;;;;;;;;5062306;28;20055;-84
2022/05/08 04:03:19;;;;;;;18.27;4.35;;;;;;;;;;5065660;28;20105;-84
2022/05/08 04:05:45;;;;;;;12.77;3.83;;;;;;;;;;5078452;28;20040;-84
2022/05/08 04:08:12;;;;;;;12.88;4.13;;;;;;;;;;5056828;28;20385;-84
2022/05/08 04:10:38;;;;;;;10.52;3.80;;;;;;;;;;5071447;28;20079;-84
2022/05/08 04:13:04;;;;;;;12.85;3.65;;;;;;;;;;5070762;28;20048;-84
2022/05/08 04:18:14;;;;;;;15.15;4.53;;;;;;;;;;5067136;28;20032;-84
2022/05/08 04:20:40;;;;;;;13.73;4.45;;;;;;;;;;5040146;28;20040;-84
2022/05/08 04:25:52;;;;;;;11.77;3.97;;;;;;;;;;5069296;28;20045;-84
2022/05/08 04:28:19;;;;;;;15.55;4.20;;;;;;;;;;5067364;28;20098;-85
2022/05/08 04:30:45;;;;;;;11.85;3.70;;;;;;;;;;5071867;28;20076;-84
2022/05/08 04:33:11;;;;;;;14.63;4.20;;;;;;;;;;5068730;28;20115;-84
2022/05/08 04:35:37;;;;;;;9.77;3.47;;;;;;;;;;5067741;28;20032;-84
2022/05/08 04:38:03;;;;;;;15.77;4.20;;;;;;;;;;5072671;28;20028;-84
2022/05/08 04:40:30;;;;;;;14.07;3.45;;;;;;;;;;5080669;28;20101;-84
2022/05/08 04:42:56;;;;;;;14.90;3.83;;;;;;;;;;5087255;28;20071;-84
2022/05/08 04:45:22;;;;;;;9.88;3.53;;;;;;;;;;5057422;28;20479;-84
2022/05/08 04:47:48;;;;;;;11.82;3.78;;;;;;;;;;5079437;28;20086;-84
2022/05/08 04:50:14;;;;;;;9.68;4.03;;;;;;;;;;5069579;28;20047;-85
2022/05/08 04:52:41;;;;;;;12.35;3.67;;;;;;;;;;5067425;28;20139;-85
2022/05/08 04:55:07;;;;;;;13.70;3.83;;;;;;;;;;5066881;28;20083;-86
2022/05/08 04:57:33;;;;;;;11.95;4.13;;;;;;;;;;5077188;28;20031;-86
2022/05/08 05:00:00;;;;;;;17.30;5.90;;;;;;;;;;5071886;28;20044;-86
2022/05/08 05:02:26;;;;;;;13.50;4.45;;;;;;;;;;5071514;28;20044;-87
2022/05/08 05:04:52;;;;;;;14.75;4.10;;;;;;;;;;5066135;28;20066;-86
2022/05/08 05:07:18;;;;;;;11.27;3.80;;;;;;;;;;5069992;28;20452;-87
2022/05/08 05:09:44;;;;;;;12.65;4.40;;;;;;;;;;5050180;28;20044;-86
2022/05/08 05:12:11;;;;;;;9.65;2.92;;;;;;;;;;5060416;28;20131;-86
2022/05/08 05:14:37;;;;;;;15.25;3.83;;;;;;;;;;5077255;28;20464;-86
2022/05/08 05:17:03;;;;;;;13.00;3.40;;;;;;;;;;5075787;28;20043;-86
2022/05/08 05:19:29;;;;;;;9.95;2.92;;;;;;;;;;5051753;28;20067;-86
2022/05/08 05:21:55;;;;;;;9.55;2.97;;;;;;;;;;5050658;28;20042;-86
2022/05/08 05:24:21;;;;;;;11.73;2.78;;;;;;;;;;5067764;28;20059;-86
2022/05/08 05:26:48;;;;;;;11.32;3.10;;;;;;;;;;5072627;28;20464;-86
2022/05/08 05:29:14;;;;;;;10.13;2.60;;;;;;;;;;5055160;28;20118;-86
2022/05/08 05:31:41;;;;;;;11.20;2.97;;;;;;;;;;5058747;28;20040;-86
2022/05/08 05:34:07;;;;;;;12.85;3.63;;;;;;;;;;5059488;28;20043;-86
2022/05/08 05:36:33;;;;;;;11.15;3.63;;;;;;;;;;5072067;28;20045;-85
2022/05/08 05:38:59;;;;;;;10.63;2.58;;;;;;;;;;5075937;28;20052;-86
2022/05/08 05:41:25;;;;;;;11.63;2.75;;;;;;;;;;5055321;28;20039;-86
2022/05/08 05:43:51;;;;;;;7.63;2.40;;;;;;;;;;5073410;28;20033;-86
2022/05/08 05:49:02;;;;;;;6.38;2.03;;;;;;;;;;5070460;28;20044;-84
2022/05/08 05:51:28;;;;;;;10.05;2.30;;;;;;;;;;5075153;28;20065;-85
2022/05/08 05:53:54;;;;;;;7.13;2.30;;;;;;;;;;5069379;28;20044;-85
2022/05/08 05:56:20;;;;;;;7.75;2.65;;;;;;;;;;5067292;28;20036;-85
2022/05/08 05:58:46;;;;;;;10.70;2.80;;;;;;;;;;5074194;28;20032;-85
2022/05/08 06:01:12;;;;;;;8.70;2.55;;;;;;;;;;5062780;28;20051;-85
2022/05/08 06:03:38;;;;;;;7.78;2.03;;;;;;;;;;5061614;28;20037;-85
2022/05/08 06:06:05;;;;;;;11.85;2.80;;;;;;;;;;5041976;28;20044;-85
2022/05/08 06:08:33;;;;;;;8.55;2.03;;;;;;;;;;5051744;28;20044;-85
2022/05/08 06:10:59;;;;;;;7.15;1.98;;;;;;;;;;5070152;28;20159;-84
2022/05/08 06:13:25;;;;;;;9.13;1.80;;;;;;;;;;5055834;28;20043;-84
2022/05/08 06:15:52;;;;;;;6.80;2.10;;;;;;;;;;5074572;28;20068;-84
2022/05/08 06:18:18;;;;;;;6.20;1.88;;;;;;;;;;5088755;28;20043;-84
2022/05/08 06:20:44;;;;;;;5.00;1.55;;;;;;;;;;5089158;28;20044;-84
2022/05/08 06:23:10;;;;;;;9.35;2.03;;;;;;;;;;5079890;28;20070;-84
2022/05/08 06:25:41;;;;;;;8.25;1.88;;;;;;;;;;5079573;28;20111;-85
2022/05/08 06:28:08;;;;;;;5.65;1.40;;;;;;;;;;5075259;28;20040;-84
2022/05/08 06:30:34;;;;;;;5.50;1.60;;;;;;;;;;5081817;28;20044;-85
2022/05/08 06:33:00;;;;;;;9.60;2.00;;;;;;;;;;5082029;28;20048;-86
2022/05/08 06:35:26;;;;;;;8.45;2.17;;;;;;;;;;5084385;28;20043;-84
2022/05/08 06:37:52;;;;;;;7.45;1.60;;;;;;;;;;5070584;28;20047;-85
2022/05/08 06:40:18;;;;;;;8.52;1.73;;;;;;;;;;5079322;28;20115;-84
2022/05/08 06:42:44;;;;;;;6.03;1.60;;;;;;;;;;5073725;28;20503;-86
2022/05/08 06:45:10;;;;;;;7.53;1.80;;;;;;;;;;5072478;28;20037;-84
2022/05/08 06:47:36;;;;;;;6.28;1.50;;;;;;;;;;5082478;28;20522;-83
2022/05/08 06:50:02;;;;;;;4.40;1.40;;;;;;;;;;5057896;28;20040;-83
2022/05/08 06:52:28;;;;;;;8.32;1.77;;;;;;;;;;5080211;28;20368;-85
2022/05/08 06:54:54;;;;;;;7.50;1.65;;;;;;;;;;5081818;28;20044;-84
2022/05/08 06:57:21;;;;;;;5.72;1.60;;;;;;;;;;5060914;28;20039;-84
2022/05/08 07:02:31;;;;;;;6.82;1.70;;;;;;;;;;5085418;28;20122;-83
2022/05/08 07:05:25;;;;;;;6.90;1.50;;;;;;;;;;5079768;28;20040;-85
2022/05/08 07:08:15;;;;;;;7.10;1.50;;;;;;;;;;5082874;28;20040;-83
2022/05/08 07:10:44;;;;;;;8.27;1.85;;;;;;;;;;5088309;28;20044;-85
2022/05/08 07:13:11;;;;;;;6.60;1.30;;;;;;;;;;5074405;28;20048;-83
2022/05/08 07:15:37;;;;;;;7.97;1.67;;;;;;;;;;5089825;28;20388;-83
2022/05/08 07:18:03;;;;;;;7.65;1.50;;;;;;;;;;5088780;28;20082;-83
2022/05/08 07:20:29;;;;;;;6.38;1.30;;;;;;;;;;5074120;28;20048;-83
2022/05/08 07:22:55;;;;;;;4.88;1.42;;;;;;;;;;5074943;28;20657;-83
2022/05/08 07:25:21;;;;;;;7.72;1.70;;;;;;;;;;5073720;28;20127;-83
2022/05/08 07:27:48;;;;;;;4.32;1.40;;;;;;;;;;5077018;28;20047;-83
2022/05/08 07:30:14;;;;;;;7.70;1.58;;;;;;;;;;5071210;28;20043;-85
2022/05/08 07:32:40;;;;;;;4.82;1.52;;;;;;;;;;5068148;28;20040;-84
2022/05/08 07:37:51;;;;;;;7.60;1.40;;;;;;;;;;5072027;28;20044;-84
2022/05/08 07:40:18;;;;;;;6.40;1.40;;;;;;;;;;5085645;28;20074;-84
2022/05/08 07:42:44;;;;;;;10.05;1.50;;;;;;;;;;5078634;28;20058;-85
2022/05/08 07:45:10;;;;;;;7.40;1.48;;;;;;;;;;5079177;28;20521;-87
2022/05/08 07:47:36;;;;;;;10.10;1.48;;;;;;;;;;5065074;28;20102;-85
2022/05/08 07:50:02;;;;;;;7.53;1.50;;;;;;;;;;5073895;28;20055;-86
2022/05/08 07:52:28;;;;;;;7.50;1.30;;;;;;;;;;5081974;28;20050;-85
2022/05/08 07:54:54;;;;;;;7.38;1.70;;;;;;;;;;5078745;28;20064;-84
2022/05/08 07:57:20;;;;;;;8.77;1.75;;;;;;;;;;5075635;28;20068;-85
2022/05/08 07:59:48;;;;;;;7.30;1.42;;;;;;;;;;5079414;28;20041;-84
2022/05/08 08:02:14;;;;;;;9.38;1.55;;;;;;;;;;5078638;28;20048;-85
2022/05/08 08:04:41;;;;;;;7.28;1.65;;;;;;;;;;5062861;28;20031;-85
2022/05/08 08:07:07;;;;;;;6.10;1.50;;;;;;;;;;5052853;28;20515;-86
2022/05/08 08:09:33;;;;;;;6.65;1.50;;;;;;;;;;5079536;28;20035;-86
2022/05/08 08:11:59;;;;;;;5.68;1.95;;;;;;;;;;5064700;28;20055;-88
2022/05/08 08:14:25;;;;;;;8.25;1.88;;;;;;;;;;5078103;28;20040;-86
2022/05/08 08:16:52;;;;;;;7.18;1.80;;;;;;;;;;5064192;28;20048;-84
2022/05/08 08:19:18;;;;;;;9.07;1.80;;;;;;;;;;5079939;28;20068;-83
2022/05/08 08:21:44;;;;;;;5.35;1.40;;;;;;;;;;5078480;28;20036;-84
2022/05/08 08:24:10;;;;;;;9.57;1.40;;;;;;;;;;5077280;28;20052;-86
2022/05/08 08:26:39;;;;;;;5.97;1.40;;;;;;;;;;5078216;28;20036;-85
2022/05/08 08:29:05;;;;;;;7.25;1.73;;;;;;;;;;5076606;28;20040;-87
2022/05/08 08:31:31;;;;;;;5.38;1.50;;;;;;;;;;5078507;28;20101;-84
2022/05/08 08:33:58;;;;;;;7.25;1.60;;;;;;;;;;5087029;28;20048;-83
2022/05/08 08:36:24;;;;;;;4.57;1.40;;;;;;;;;;5087446;28;20040;-84
2022/05/08 08:38:50;;;;;;;6.65;1.60;;;;;;;;;;5079190;28;20032;-85
2022/05/08 08:41:20;;;;;;;5.88;1.65;;;;;;;;;;5078412;28;20048;-84
2022/05/08 08:49:21;;;;;;;4.38;1.50;;;;;;;;;;5085508;28;20543;-84
2022/05/08 08:51:48;;;;;;;6.68;1.70;;;;;;;;;;5094306;28;20044;-82
2022/05/08 08:54:15;;;;;;;6.72;1.67;;;;;;;;;;5082790;28;20044;-86
2022/05/08 08:56:41;;;;;;;8.18;1.60;;;;;;;;;;5080518;28;20067;-84
2022/05/08 08:59:09;;;;;;;5.72;1.70;;;;;;;;;;5086625;28;20411;-82
2022/05/08 09:01:45;;;;;;;8.95;1.70;;;;;;;;;;5068651;28;20587;-86
2022/05/08 09:04:12;;;;;;;5.47;1.60;;;;;;;;;;5070406;28;20044;-83
2022/05/08 09:06:39;;;;;;;8.02;2.00;;;;;;;;;;5075050;28;20074;-85
2022/05/08 09:09:22;;;;;;;6.22;1.55;;;;;;;;;;5084819;28;20417;-86
2022/05/08 09:11:48;;;;;;;5.85;1.70;;;;;;;;;;5064684;28;20191;-86
2022/05/08 09:14:27;;;;;;;7.78;1.90;;;;;;;;;;5070790;28;20069;-82
2022/05/08 09:16:53;;;;;;;4.60;1.67;;;;;;;;;;5075425;28;20083;-81
2022/05/08 09:19:39;;;;;;;7.97;2.13;;;;;;;;;;5084948;28;20197;-82
2022/05/08 09:22:06;;;;;;;5.07;1.30;;;;;;;;;;5074300;28;20036;-83
2022/05/08 09:24:32;;;;;;;6.13;1.63;;;;;;;;;;5070099;28;20452;-83
2022/05/08 09:27:12;;;;;;;7.30;1.58;;;;;;;;;;5073147;28;20040;-82
2022/05/08 09:29:38;;;;;;;6.90;1.60;;;;;;;;;;5076736;28;20045;-83
2022/05/08 09:32:05;;;;;;;7.20;1.83;;;;;;;;;;5068429;28;20086;-82
2022/05/08 09:34:31;;;;;;;4.72;1.60;;;;;;;;;;5075934;28;20043;-84
2022/05/08 09:37:07;;;;;;;5.63;1.55;;;;;;;;;;5084054;28;20032;-82
2022/05/08 09:39:33;;;;;;;5.93;1.50;;;;;;;;;;5077299;28;20040;-82
2022/05/08 09:41:59;;;;;;;5.07;1.58;;;;;;;;;;5080264;28;20448;-87
2022/05/08 09:44:25;;;;;;;5.57;1.52;;;;;;;;;;5065249;28;20086;-82
2022/05/08 09:46:51;;;;;;;6.55;1.80;;;;;;;;;;5069880;28;20056;-84
2022/05/08 09:49:19;;;;;;;7.70;1.65;;;;;;;;;;5071053;28;20127;-86
2022/05/08 09:51:46;;;;;;;6.50;1.88;;;;;;;;;;5063718;28;20047;-83
2022/05/08 09:54:13;;;;;;;7.82;1.80;;;;;;;;;;5078886;28;20119;-84
2022/05/08 09:56:40;;;;;;;8.80;1.70;;;;;;;;;;5077596;28;20054;-85
2022/05/08 09:59:07;;;;;;;7.97;2.05;;;;;;;;;;5063750;28;20039;-83
2022/05/08 10:01:34;;;;;;;10.98;2.22;;;;;;;;;;5088962;28;20470;-87
2022/05/08 10:04:00;;;;;;;5.15;1.55;;;;;;;;;;5083574;28;20136;-86
2022/05/08 10:06:30;;;;;;;6.93;1.38;;;;;;;;;;5085286;28;20044;-83
2022/05/08 10:13:53;;;;;;;8.43;1.90;;;;;;;;;;5076501;28;20424;-86
2022/05/08 10:14:30;;;;;;;8.70;2.20;;;;;;;;;;5079283;28;20391;-87
2022/05/08 10:17:06;;;;;;;6.13;1.63;;;;;;;;;;5066021;28;20530;-83
2022/05/08 10:19:32;;;;;;;8.55;2.25;;;;;;;;;;5097543;28;20056;-84
2022/05/08 10:22:09;;;;;;;5.85;1.77;;;;;;;;;;5066945;28;20044;-83
2022/05/08 10:24:35;;;;;;;5.95;1.80;;;;;;;;;;5069937;28;20040;-84
2022/05/08 10:27:21;;;;;;;8.30;1.67;;;;;;;;;;5074017;28;20419;-84
2022/05/08 10:29:50;;;;;;;8.05;1.90;;;;;;;;;;5080274;28;20074;-83
2022/05/08 10:32:31;;;;;;;6.55;1.80;;;;;;;;;;5078328;28;20085;-83
2022/05/08 10:35:06;;;;;;;6.40;1.77;;;;;;;;;;5060765;28;20098;-84
2022/05/08 10:37:34;;;;;;;6.32;1.52;;;;;;;;;;5075496;28;20040;-83
2022/05/08 10:40:01;;;;;;;7.45;1.67;;;;;;;;;;5085522;28;20084;-83
2022/05/08 10:42:27;;;;;;;7.95;1.70;;;;;;;;;;5097795;28;20159;-83
2022/05/08 10:44:53;;;;;;;9.90;2.15;;;;;;;;;;5060780;28;20048;-83
2022/05/08 10:50:05;;;;;;;6.43;1.60;;;;;;;;;;5084980;28;20056;-83
2022/05/08 10:52:31;;;;;;;6.88;1.90;;;;;;;;;;5055302;28;20115;-82
2022/05/08 10:55:04;;;;;;;5.78;1.63;;;;;;;;;;5070295;28;20118;-83
2022/05/08 10:57:30;;;;;;;9.27;1.65;;;;;;;;;;5069468;28;20041;-82
2022/05/08 10:59:57;;;;;;;7.10;1.70;;;;;;;;;;5057738;28;20098;-84
2022/05/08 11:02:43;;;;;;;9.00;1.77;;;;;;;;;;5071541;28;20040;-83
2022/05/08 11:05:09;;;;;;;7.82;1.77;;;;;;;;;;5089241;28;20028;-83
2022/05/08 11:07:37;;;;;;;8.57;1.70;;;;;;;;;;5055528;28;20123;-83
2022/05/08 11:10:13;;;;;;;7.75;1.60;;;;;;;;;;5072059;28;20037;-83
2022/05/08 11:12:54;;;;;;;7.43;2.38;;;;;;;;;;5074810;28;20044;-84
2022/05/08 11:15:20;;;;;;;7.63;1.98;;;;;;;;;;5084478;28;20460;-84
2022/05/08 11:17:46;;;;;;;8.27;1.85;;;;;;;;;;5090900;28;20035;-83
2022/05/08 11:20:16;;;;;;;7.15;1.50;;;;;;;;;;5070578;28;20047;-84
2022/05/08 11:22:54;;;;;;;7.32;1.50;;;;;;;;;;5072570;28;20435;-83
2022/05/08 11:25:20;;;;;;;8.20;1.60;;;;;;;;;;5059398;28;20056;-83
2022/05/08 11:27:53;;;;;;;7.35;1.77;;;;;;;;;;5086986;28;20089;-81
2022/05/08 11:30:28;;;;;;;4.82;1.88;;;;;;;;;;5078275;28;20044;-83
2022/05/08 11:38:24;;;;;;;5.55;1.90;;;;;;;;;;5091917;28;20039;-84
2022/05/08 11:40:51;;;;;;;7.30;1.90;;;;;;;;;;5059412;28;20098;-83
2022/05/08 11:43:36;;;;;;;6.70;1.77;;;;;;;;;;5069665;28;20072;-83
2022/05/08 11:46:02;;;;;;;9.25;1.75;;;;;;;;;;5079406;28;20581;-84
2022/05/08 11:48:32;;;;;;;7.55;1.88;;;;;;;;;;5065135;28;20048;-83
2022/05/08 11:50:59;;;;;;;7.55;1.50;;;;;;;;;;5081290;28;20047;-82
2022/05/08 11:53:25;;;;;;;8.77;1.80;;;;;;;;;;5067292;28;20048;-83
2022/05/08 11:55:51;;;;;;;4.80;1.52;;;;;;;;;;5082147;28;20101;-83
2022/05/08 11:58:33;;;;;;;8.18;1.77;;;;;;;;;;5083819;28;20051;-84
2022/05/08 12:00:59;;;;;;;6.63;2.00;;;;;;;;;;5069262;28;20044;-84
2022/05/08 12:03:28;;;;;;;8.20;1.88;;;;;;;;;;5072393;28;20033;-83
2022/05/08 12:06:11;;;;;;;9.10;1.67;;;;;;;;;;5081704;28;20044;-84
2022/05/08 12:08:37;;;;;;;6.53;1.92;;;;;;;;;;5050083;28;20036;-84
2022/05/08 12:11:03;;;;;;;6.97;1.73;;;;;;;;;;5081688;28;20067;-83
2022/05/08 12:13:34;;;;;;;8.65;1.70;;;;;;;;;;5088207;28;20040;-84
2022/05/08 12:16:15;;;;;;;6.03;1.60;;;;;;;;;;5059460;28;20397;-85
2022/05/08 12:19:01;;;;;;;7.85;1.90;;;;;;;;;;5051524;28;20064;-83
2022/05/08 12:21:27;;;;;;;7.05;2.10;;;;;;;;;;5080839;28;20040;-82
2022/05/08 12:23:53;;;;;;;10.13;2.10;;;;;;;;;;5068308;28;20036;-82
2022/05/08 12:26:19;;;;;;;8.90;1.88;;;;;;;;;;5077555;28;20039;-83
2022/05/08 12:28:45;;;;;;;6.32;1.70;;;;;;;;;;5068404;28;20074;-82
2022/05/08 12:31:11;;;;;;;9.32;1.65;;;;;;;;;;5067981;28;20044;-82
2022/05/08 12:33:37;;;;;;;6.65;2.20;;;;;;;;;;5072447;28;20119;-82
2022/05/08 12:36:04;;;;;;;7.32;1.60;;;;;;;;;;5079850;28;20480;-84
2022/05/08 12:38:30;;;;;;;6.88;1.75;;;;;;;;;;5054518;28;20039;-84
2022/05/08 12:40:58;;;;;;;10.98;1.98;;;;;;;;;;5078502;28;20071;-89
2022/05/08 12:43:24;;;;;;;9.48;2.10;;;;;;;;;;5073835;28;20099;-85
2022/05/08 12:45:51;;;;;;;5.82;1.90;;;;;;;;;;5083749;28;20505;-85
2022/05/08 12:48:21;;;;;;;10.07;1.90;;;;;;;;;;5072454;28;20052;-86
2022/05/08 12:50:48;;;;;;;7.00;1.80;;;;;;;;;;5081834;28;20138;-89
2022/05/08 12:53:14;;;;;;;9.52;1.98;;;;;;;;;;5072331;28;20555;-87
2022/05/08 12:55:40;;;;;;;7.60;1.98;;;;;;;;;;5056159;28;20128;-85
2022/05/08 13:00:51;;;;;;;5.72;1.70;;;;;;;;;;5082370;28;20135;-86
2022/05/08 13:03:17;;;;;;;7.10;1.90;;;;;;;;;;5080769;28;20535;-85
2022/05/08 13:05:43;;;;;;;10.73;1.83;;;;;;;;;;5081057;28;20034;-89
2022/05/08 13:08:09;;;;;;;8.45;1.70;;;;;;;;;;5069066;28;20066;-86
2022/05/08 13:10:36;;;;;;;7.82;1.92;;;;;;;;;;5077240;28;20044;-85
2022/05/08 13:13:02;;;;;;;9.48;2.05;;;;;;;;;;5045855;28;20044;-87
2022/05/08 13:15:28;;;;;;;8.52;1.92;;;;;;;;;;5078475;28;20135;-88
2022/05/08 13:17:54;;;;;;;9.00;2.15;;;;;;;;;;5069314;28;20044;-85
2022/05/08 13:20:20;;;;;;;8.25;1.98;;;;;;;;;;5050419;28;20068;-85
2022/05/08 13:22:46;;;;;;;9.93;2.35;;;;;;;;;;5055426;28;20131;-90
2022/05/08 13:25:12;;;;;;;6.80;1.98;;;;;;;;;;5057926;28;20033;-87
2022/05/08 13:27:39;;;;;;;7.20;1.70;;;;;;;;;;5076163;28;20028;-88
2022/05/08 13:30:06;;;;;;;10.82;2.35;;;;;;;;;;5075296;28;20044;-87
2022/05/08 13:32:36;;;;;;;5.07;1.77;;;;;;;;;;5044630;28;20168;-86
2022/05/08 13:35:02;;;;;;;6.15;1.90;;;;;;;;;;5052503;28;20080;-92
2022/05/08 13:37:30;;;;;;;5.20;1.70;;;;;;;;;;5051735;28;20089;-88
2022/05/08 13:39:59;;;;;;;7.72;1.95;;;;;;;;;;5078594;28;20044;-88
2022/05/08 13:42:25;;;;;;;7.05;2.13;;;;;;;;;;5084144;28;20498;-87
2022/05/08 13:44:55;;;;;;;8.38;1.80;;;;;;;;;;5073643;28;20071;-87
2022/05/08 13:47:22;;;;;;;10.18;2.10;;;;;;;;;;5062808;28;20411;-86
2022/05/08 13:49:48;;;;;;;7.00;1.90;;;;;;;;;;5071311;28;20044;-86
2022/05/08 13:52:14;;;;;;;7.22;2.08;;;;;;;;;;5034609;28;20496;-86
2022/05/08 13:54:42;;;;;;;7.03;1.67;;;;;;;;;;5071072;28;20029;-85
2022/05/08 13:57:11;;;;;;;9.00;2.42;;;;;;;;;;5069942;28;20488;-84
2022/05/08 13:59:37;;;;;;;7.90;1.70;;;;;;;;;;5044441;28;20484;-90
2022/05/08 14:02:04;;;;;;;5.13;1.98;;;;;;;;;;5072669;28;20036;-85
2022/05/08 14:04:30;;;;;;;9.18;2.05;;;;;;;;;;5071462;28;20063;-85
2022/05/08 14:06:56;;;;;;;8.60;2.10;;;;;;;;;;5082456;28;20066;-86
2022/05/08 14:09:22;;;;;;;7.03;1.60;;;;;;;;;;5073429;28;20033;-85
2022/05/08 14:11:54;;;;;;;6.63;1.58;;;;;;;;;;5030731;28;20033;-89
2022/05/08 14:14:25;;;;;;;11.27;2.03;;;;;;;;;;5061764;28;20045;-85
2022/05/08 14:16:51;;;;;;;6.18;1.70;;;;;;;;;;5059637;28;20395;-86
2022/05/08 14:19:17;;;;;;;7.18;1.98;;;;;;;;;;5057899;28;20423;-90
2022/05/08 14:21:43;;;;;;;9.60;1.88;;;;;;;;;;5068718;28;20037;-86
2022/05/08 14:24:10;;;;;;;6.60;1.70;;;;;;;;;;5074678;28;20032;-90
2022/05/08 14:26:36;;;;;;;8.65;1.85;;;;;;;;;;5070186;28;20034;-89
2022/05/08 14:29:02;;;;;;;6.20;1.80;;;;;;;;;;5077367;28;20062;-89
2022/05/08 14:36:57;;;;;;;6.63;1.92;;;;;;;;;;5103804;28;20546;-86
2022/05/08 14:39:23;;;;;;;6.88;1.70;;;;;;;;;;5080355;28;20044;-87
2022/05/08 14:41:49;;;;;;;10.88;2.25;;;;;;;;;;5086383;28;20028;-86
2022/05/08 14:44:15;;;;;;;10.10;1.52;;;;;;;;;;5079098;28;20046;-90
2022/05/08 14:46:42;;;;;;;7.65;1.60;;;;;;;;;;5079140;28;20484;-86
2022/05/08 14:49:08;;;;;;;8.10;1.92;;;;;;;;;;5059429;28;20064;-87
2022/05/08 14:51:34;;;;;;;7.93;1.92;;;;;;;;;;5077741;28;20048;-85
2022/05/08 14:54:01;;;;;;;5.05;1.83;;;;;;;;;;5039022;28;20044;-84
2022/05/08 14:56:27;;;;;;;9.75;2.25;;;;;;;;;;5085345;28;20063;-85
2022/05/08 14:58:53;;;;;;;7.40;1.80;;;;;;;;;;5083352;28;20043;-88
2022/05/08 15:01:19;;;;;;;6.53;1.77;;;;;;;;;;5071401;28;20089;-86
2022/05/08 15:03:46;;;;;;;8.07;1.85;;;;;;;;;;5082364;28;20118;-88
2022/05/08 15:06:14;;;;;;;8.07;1.80;;;;;;;;;;5086248;28;20032;-87
2022/05/08 15:08:42;;;;;;;8.65;2.35;;;;;;;;;;5068875;28;20043;-86
2022/05/08 15:11:08;;;;;;;9.70;2.15;;;;;;;;;;5095734;28;20071;-85
2022/05/08 15:13:38;;;;;;;10.45;2.08;;;;;;;;;;5076369;28;20602;-88
2022/05/08 15:16:04;;;;;;;5.80;1.58;;;;;;;;;;5071287;28;20494;-84
2022/05/08 15:18:48;;;;;;;8.65;2.25;;;;;;;;;;5067692;28;20210;-90
2022/05/08 15:21:14;;;;;;;10.05;2.17;;;;;;;;;;5070882;28;20072;-87